sensor_id;sensor_type;location;lat;lon;timestamp;pressure;altitude;pressure_sealevel;temperature;humidity
26087;BME280;13851;43.434;28.338;2022-12-17T00:01:46;100090.91;;;13.84;100.00
26087;BME280;13851;43.434;28.338;2022-12-17T00:04:41;100088.00;;;13.70;100.00
26087;BME280;13851;43.434;28.338;2022-12-17T00:07:25;100093.19;;;13.80;100.00
26087;BME280;13851;43.434;28.338;2022-12-17T00:10:09;100089.00;;;13.84;100.00
26087;BME280;13851;43.434;28.338;2022-12-17T00:12:53;100097.84;;;13.79;100.00
26087;BME280;13851;43.434;28.338;2022-12-17T00:15:37;100076.03;;;13.57;100.00
26087;BME280;13851;43.434;28.338;2022-12-17T00:18:21;100079.94;;;13.47;100.00
26087;BME280;13851;43.434;28.338;2022-12-17T00:21:07;100072.53;;;13.69;100.00
26087;BME280;13851;43.434;28.338;2022-12-17T00:23:51;100077.41;;;13.67;100.00
26087;BME280;13851;43.434;28.338;2022-12-17T00:26:36;99897.69;;;12.60;100.00
26087;BME280;13851;43.434;28.338;2022-12-17T00:29:20;99804.09;;;11.89;100.00
26087;BME280;13851;43.434;28.338;2022-12-17T00:32:04;100066.84;;;13.13;100.00
26087;BME280;13851;43.434;28.338;2022-12-17T00:34:48;100064.34;;;12.82;100.00
26087;BME280;13851;43.434;28.338;2022-12-17T00:37:32;100065.13;;;12.61;100.00
26087;BME280;13851;43.434;28.338;2022-12-17T00:40:19;100057.94;;;12.45;100.00
26087;BME280;13851;43.434;28.338;2022-12-17T00:45:47;99866.03;;;11.39;100.00
26087;BME280;13851;43.434;28.338;2022-12-17T00:48:31;100061.41;;;12.69;100.00
26087;BME280;13851;43.434;28.338;2022-12-17T00:51:15;100058.94;;;12.74;100.00
26087;BME280;13851;43.434;28.338;2022-12-17T00:54:01;100064.34;;;12.53;100.00
26087;BME280;13851;43.434;28.338;2022-12-17T00:56:45;100010.63;;;12.65;100.00
26087;BME280;13851;43.434;28.338;2022-12-17T00:59:29;100034.25;;;12.59;100.00
26087;BME280;13851;43.434;28.338;2022-12-17T01:02:13;100065.16;;;12.97;100.00
26087;BME280;13851;43.434;28.338;2022-12-17T01:04:57;100044.16;;;12.90;100.00
26087;BME280;13851;43.434;28.338;2022-12-17T01:07:43;99915.47;;;12.13;100.00
26087;BME280;13851;43.434;28.338;2022-12-17T01:10:49;100007.34;;;12.55;100.00
26087;BME280;13851;43.434;28.338;2022-12-17T01:13:36;100023.06;;;12.46;100.00
26087;BME280;13851;43.434;28.338;2022-12-17T01:16:23;100106.25;;;12.55;100.00
26087;BME280;13851;43.434;28.338;2022-12-17T01:19:07;100099.50;;;12.42;100.00
26087;BME280;13851;43.434;28.338;2022-12-17T01:21:51;100062.28;;;12.25;100.00
26087;BME280;13851;43.434;28.338;2022-12-17T01:24:35;100081.59;;;12.32;100.00
26087;BME280;13851;43.434;28.338;2022-12-17T01:27:19;100079.97;;;12.37;100.00
26087;BME280;13851;43.434;28.338;2022-12-17T01:30:04;100067.56;;;12.27;100.00
26087;BME280;13851;43.434;28.338;2022-12-17T01:32:48;99867.69;;;11.10;100.00
26087;BME280;13851;43.434;28.338;2022-12-17T01:35:32;100092.88;;;12.52;100.00
26087;BME280;13851;43.434;28.338;2022-12-17T01:38:19;100037.66;;;12.46;100.00
26087;BME280;13851;43.434;28.338;2022-12-17T01:41:04;100090.34;;;12.80;100.00
26087;BME280;13851;43.434;28.338;2022-12-17T01:43:48;100094.66;;;12.89;100.00
26087;BME280;13851;43.434;28.338;2022-12-17T01:46:35;100095.91;;;12.86;100.00
26087;BME280;13851;43.434;28.338;2022-12-17T01:49:24;100115.81;;;12.88;100.00
26087;BME280;13851;43.434;28.338;2022-12-17T01:52:23;100115.72;;;12.82;100.00
26087;BME280;13851;43.434;28.338;2022-12-17T01:55:07;100029.13;;;12.41;100.00
26087;BME280;13851;43.434;28.338;2022-12-17T01:57:54;100085.78;;;12.72;100.00
26087;BME280;13851;43.434;28.338;2022-12-17T02:00:38;100102.91;;;12.74;100.00
26087;BME280;13851;43.434;28.338;2022-12-17T02:03:22;100074.97;;;12.70;100.00
26087;BME280;13851;43.434;28.338;2022-12-17T02:12:50;100102.06;;;12.88;100.00
26087;BME280;13851;43.434;28.338;2022-12-17T02:15:38;100103.75;;;12.89;100.00
26087;BME280;13851;43.434;28.338;2022-12-17T02:18:31;100120.25;;;12.89;100.00
26087;BME280;13851;43.434;28.338;2022-12-17T02:21:21;99966.03;;;11.89;100.00
26087;BME280;13851;43.434;28.338;2022-12-17T02:26:58;100081.59;;;12.76;100.00
26087;BME280;13851;43.434;28.338;2022-12-17T02:29:48;100098.16;;;12.97;100.00
26087;BME280;13851;43.434;28.338;2022-12-17T02:32:36;100091.63;;;12.98;100.00
26087;BME280;13851;43.434;28.338;2022-12-17T02:35:27;100070.69;;;12.83;100.00
26087;BME280;13851;43.434;28.338;2022-12-17T02:38:24;100096.81;;;13.08;100.00
26087;BME280;13851;43.434;28.338;2022-12-17T02:41:50;100082.22;;;13.08;100.00
26087;BME280;13851;43.434;28.338;2022-12-17T02:44:33;100059.38;;;12.92;100.00
26087;BME280;13851;43.434;28.338;2022-12-17T02:47:18;100068.97;;;12.96;100.00
26087;BME280;13851;43.434;28.338;2022-12-17T02:50:06;100085.59;;;13.10;100.00
26087;BME280;13851;43.434;28.338;2022-12-17T02:52:53;100051.50;;;12.89;100.00
26087;BME280;13851;43.434;28.338;2022-12-17T02:55:37;100090.97;;;12.96;100.00
26087;BME280;13851;43.434;28.338;2022-12-17T02:58:22;100061.38;;;12.98;100.00
26087;BME280;13851;43.434;28.338;2022-12-17T03:01:06;100079.47;;;13.08;100.00
26087;BME280;13851;43.434;28.338;2022-12-17T03:03:50;99824.13;;;11.60;100.00
26087;BME280;13851;43.434;28.338;2022-12-17T03:06:34;100108.16;;;13.20;100.00
26087;BME280;13851;43.434;28.338;2022-12-17T03:09:18;99825.75;;;11.69;100.00
26087;BME280;13851;43.434;28.338;2022-12-17T03:12:02;99865.34;;;11.89;100.00
26087;BME280;13851;43.434;28.338;2022-12-17T03:14:46;100002.38;;;12.65;100.00
26087;BME280;13851;43.434;28.338;2022-12-17T03:17:30;100082.84;;;13.10;100.00
26087;BME280;13851;43.434;28.338;2022-12-17T03:20:15;99845.53;;;11.79;100.00
26087;BME280;13851;43.434;28.338;2022-12-17T03:23:04;100047.94;;;13.10;100.00
26087;BME280;13851;43.434;28.338;2022-12-17T03:25:48;99875.91;;;12.07;100.00
26087;BME280;13851;43.434;28.338;2022-12-17T03:28:32;99915.94;;;12.31;100.00
26087;BME280;13851;43.434;28.338;2022-12-17T03:31:18;100027.44;;;12.91;100.00
26087;BME280;13851;43.434;28.338;2022-12-17T03:34:02;100032.75;;;12.93;100.00
26087;BME280;13851;43.434;28.338;2022-12-17T03:36:46;100065.97;;;13.13;100.00
26087;BME280;13851;43.434;28.338;2022-12-17T03:39:33;100036.09;;;12.73;100.00
26087;BME280;13851;43.434;28.338;2022-12-17T03:42:17;100037.50;;;12.84;100.00
26087;BME280;13851;43.434;28.338;2022-12-17T03:45:01;99847.72;;;11.84;100.00
26087;BME280;13851;43.434;28.338;2022-12-17T03:47:47;99879.91;;;12.05;100.00
26087;BME280;13851;43.434;28.338;2022-12-17T03:50:32;100061.69;;;13.25;100.00
26087;BME280;13851;43.434;28.338;2022-12-17T03:53:16;100066.03;;;13.34;100.00
26087;BME280;13851;43.434;28.338;2022-12-17T03:56:00;100057.78;;;13.34;100.00
26087;BME280;13851;43.434;28.338;2022-12-17T03:58:46;99836.22;;;12.10;100.00
26087;BME280;13851;43.434;28.338;2022-12-17T04:01:35;100064.97;;;13.35;100.00
26087;BME280;13851;43.434;28.338;2022-12-17T04:04:20;99942.66;;;12.59;100.00
26087;BME280;13851;43.434;28.338;2022-12-17T04:07:04;100076.78;;;13.14;100.00
26087;BME280;13851;43.434;28.338;2022-12-17T04:09:48;100017.06;;;13.08;100.00
26087;BME280;13851;43.434;28.338;2022-12-17T04:12:32;100034.59;;;13.22;100.00
26087;BME280;13851;43.434;28.338;2022-12-17T04:15:18;100084.06;;;13.37;100.00
26087;BME280;13851;43.434;28.338;2022-12-17T04:18:02;100044.44;;;13.31;100.00
26087;BME280;13851;43.434;28.338;2022-12-17T04:20:47;100019.22;;;13.13;100.00
26087;BME280;13851;43.434;28.338;2022-12-17T04:23:31;99986.84;;;12.93;100.00
26087;BME280;13851;43.434;28.338;2022-12-17T04:26:15;100014.56;;;13.13;100.00
26087;BME280;13851;43.434;28.338;2022-12-17T04:28:58;100006.69;;;13.10;100.00
26087;BME280;13851;43.434;28.338;2022-12-17T04:31:42;99995.38;;;12.98;100.00
26087;BME280;13851;43.434;28.338;2022-12-17T04:34:26;100002.84;;;13.05;100.00
26087;BME280;13851;43.434;28.338;2022-12-17T04:37:10;99872.00;;;12.16;100.00
26087;BME280;13851;43.434;28.338;2022-12-17T04:39:54;100041.19;;;12.91;100.00
26087;BME280;13851;43.434;28.338;2022-12-17T04:42:38;100012.94;;;12.83;100.00
26087;BME280;13851;43.434;28.338;2022-12-17T04:45:22;100023.28;;;12.95;100.00
26087;BME280;13851;43.434;28.338;2022-12-17T04:48:08;99986.06;;;12.63;100.00
26087;BME280;13851;43.434;28.338;2022-12-17T04:50:54;100007.53;;;12.89;100.00
26087;BME280;13851;43.434;28.338;2022-12-17T04:53:38;100003.06;;;12.88;100.00
26087;BME280;13851;43.434;28.338;2022-12-17T04:56:26;99982.97;;;12.88;100.00
26087;BME280;13851;43.434;28.338;2022-12-17T04:59:09;99987.09;;;12.77;100.00
26087;BME280;13851;43.434;28.338;2022-12-17T05:01:54;99782.91;;;11.53;100.00
26087;BME280;13851;43.434;28.338;2022-12-17T05:04:37;99777.22;;;11.55;100.00
26087;BME280;13851;43.434;28.338;2022-12-17T05:07:24;99965.47;;;12.74;100.00
26087;BME280;13851;43.434;28.338;2022-12-17T05:10:10;100021.34;;;13.11;100.00
26087;BME280;13851;43.434;28.338;2022-12-17T05:12:56;100006.91;;;13.09;100.00
26087;BME280;13851;43.434;28.338;2022-12-17T05:15:43;100024.19;;;13.02;100.00
26087;BME280;13851;43.434;28.338;2022-12-17T05:18:27;99802.75;;;11.70;100.00
26087;BME280;13851;43.434;28.338;2022-12-17T05:21:11;99624.03;;;10.71;100.00
26087;BME280;13851;43.434;28.338;2022-12-17T05:23:55;99997.59;;;12.73;100.00
26087;BME280;13851;43.434;28.338;2022-12-17T05:26:41;99961.16;;;12.65;100.00
26087;BME280;13851;43.434;28.338;2022-12-17T05:29:26;99776.38;;;11.54;100.00
26087;BME280;13851;43.434;28.338;2022-12-17T05:32:20;99906.19;;;12.29;100.00
26087;BME280;13851;43.434;28.338;2022-12-17T05:35:04;99969.56;;;12.63;100.00
26087;BME280;13851;43.434;28.338;2022-12-17T05:37:48;99820.81;;;11.79;100.00
26087;BME280;13851;43.434;28.338;2022-12-17T05:40:43;99976.41;;;12.53;100.00
26087;BME280;13851;43.434;28.338;2022-12-17T05:43:27;100008.22;;;12.77;100.00
26087;BME280;13851;43.434;28.338;2022-12-17T05:46:11;99751.91;;;11.23;100.00
26087;BME280;13851;43.434;28.338;2022-12-17T05:49:00;100003.50;;;12.70;100.00
26087;BME280;13851;43.434;28.338;2022-12-17T05:51:44;99974.06;;;12.49;100.00
26087;BME280;13851;43.434;28.338;2022-12-17T05:54:28;99823.28;;;11.74;100.00
26087;BME280;13851;43.434;28.338;2022-12-17T05:57:12;99985.44;;;12.46;100.00
26087;BME280;13851;43.434;28.338;2022-12-17T05:59:56;99915.94;;;12.16;100.00
26087;BME280;13851;43.434;28.338;2022-12-17T06:02:40;99997.44;;;12.75;100.00
26087;BME280;13851;43.434;28.338;2022-12-17T06:05:24;100008.25;;;12.98;100.00
26087;BME280;13851;43.434;28.338;2022-12-17T06:08:08;100009.22;;;13.05;100.00
26087;BME280;13851;43.434;28.338;2022-12-17T06:10:53;100035.63;;;13.21;100.00
26087;BME280;13851;43.434;28.338;2022-12-17T06:13:37;100009.91;;;13.14;100.00
26087;BME280;13851;43.434;28.338;2022-12-17T06:16:21;100043.06;;;13.42;100.00
26087;BME280;13851;43.434;28.338;2022-12-17T06:19:08;99984.88;;;13.23;100.00
26087;BME280;13851;43.434;28.338;2022-12-17T06:21:52;99999.63;;;13.37;100.00
26087;BME280;13851;43.434;28.338;2022-12-17T06:24:39;100018.72;;;13.45;100.00
26087;BME280;13851;43.434;28.338;2022-12-17T06:27:23;100020.50;;;13.53;100.00
26087;BME280;13851;43.434;28.338;2022-12-17T06:30:08;99999.34;;;13.32;100.00
26087;BME280;13851;43.434;28.338;2022-12-17T06:33:13;100015.41;;;13.50;100.00
26087;BME280;13851;43.434;28.338;2022-12-17T06:35:57;100037.72;;;13.40;100.00
26087;BME280;13851;43.434;28.338;2022-12-17T06:38:41;100010.22;;;13.40;100.00
26087;BME280;13851;43.434;28.338;2022-12-17T06:41:26;100017.38;;;13.20;100.00
26087;BME280;13851;43.434;28.338;2022-12-17T06:44:10;99986.59;;;13.10;100.00
26087;BME280;13851;43.434;28.338;2022-12-17T06:46:54;100007.63;;;13.32;100.00
26087;BME280;13851;43.434;28.338;2022-12-17T06:49:38;99780.22;;;11.89;100.00
26087;BME280;13851;43.434;28.338;2022-12-17T06:52:21;100009.34;;;13.18;100.00
26087;BME280;13851;43.434;28.338;2022-12-17T06:55:08;100003.09;;;13.10;100.00
26087;BME280;13851;43.434;28.338;2022-12-17T06:58:04;100013.34;;;13.16;100.00
26087;BME280;13851;43.434;28.338;2022-12-17T07:00:51;100013.56;;;12.99;100.00
26087;BME280;13851;43.434;28.338;2022-12-17T07:03:35;99960.91;;;12.45;100.00
26087;BME280;13851;43.434;28.338;2022-12-17T07:06:19;99993.91;;;12.81;100.00
26087;BME280;13851;43.434;28.338;2022-12-17T07:09:05;100044.59;;;12.93;100.00
26087;BME280;13851;43.434;28.338;2022-12-17T07:11:49;100011.63;;;12.79;100.00
26087;BME280;13851;43.434;28.338;2022-12-17T07:14:33;100019.44;;;12.60;100.00
26087;BME280;13851;43.434;28.338;2022-12-17T07:17:19;100028.53;;;12.61;100.00
26087;BME280;13851;43.434;28.338;2022-12-17T07:20:04;100025.13;;;12.59;100.00
26087;BME280;13851;43.434;28.338;2022-12-17T07:22:53;100009.38;;;12.67;100.00
26087;BME280;13851;43.434;28.338;2022-12-17T07:25:40;100049.44;;;12.91;100.00
26087;BME280;13851;43.434;28.338;2022-12-17T07:28:25;100042.69;;;12.94;100.00
26087;BME280;13851;43.434;28.338;2022-12-17T07:31:12;100021.81;;;12.48;100.00
26087;BME280;13851;43.434;28.338;2022-12-17T07:33:59;100024.88;;;12.39;100.00
26087;BME280;13851;43.434;28.338;2022-12-17T07:36:46;100072.31;;;12.62;100.00
26087;BME280;13851;43.434;28.338;2022-12-17T07:39:30;100057.94;;;12.60;100.00
26087;BME280;13851;43.434;28.338;2022-12-17T07:42:14;100027.69;;;12.45;100.00
26087;BME280;13851;43.434;28.338;2022-12-17T07:45:01;100032.06;;;12.55;100.00
26087;BME280;13851;43.434;28.338;2022-12-17T07:47:52;100051.31;;;13.06;100.00
26087;BME280;13851;43.434;28.338;2022-12-17T07:50:37;99808.44;;;11.54;100.00
26087;BME280;13851;43.434;28.338;2022-12-17T07:53:21;99813.25;;;11.66;100.00
26087;BME280;13851;43.434;28.338;2022-12-17T07:56:06;100049.75;;;13.18;100.00
26087;BME280;13851;43.434;28.338;2022-12-17T07:58:51;100075.88;;;13.43;100.00
26087;BME280;13851;43.434;28.338;2022-12-17T08:01:35;100077.53;;;13.38;100.00
26087;BME280;13851;43.434;28.338;2022-12-17T08:04:18;100056.16;;;13.40;100.00
26087;BME280;13851;43.434;28.338;2022-12-17T08:07:02;100034.72;;;13.35;100.00
26087;BME280;13851;43.434;28.338;2022-12-17T08:09:46;99780.59;;;11.86;100.00
26087;BME280;13851;43.434;28.338;2022-12-17T08:12:30;100079.94;;;13.69;100.00
26087;BME280;13851;43.434;28.338;2022-12-17T08:15:14;100087.41;;;13.75;100.00
26087;BME280;13851;43.434;28.338;2022-12-17T08:18:01;100025.44;;;13.36;100.00
26087;BME280;13851;43.434;28.338;2022-12-17T08:20:49;100084.28;;;13.78;100.00
26087;BME280;13851;43.434;28.338;2022-12-17T08:23:33;100078.25;;;13.68;100.00
26087;BME280;13851;43.434;28.338;2022-12-17T08:26:19;99897.03;;;12.79;100.00
26087;BME280;13851;43.434;28.338;2022-12-17T08:29:03;100069.38;;;13.94;100.00
26087;BME280;13851;43.434;28.338;2022-12-17T08:31:50;100028.22;;;13.64;100.00
26087;BME280;13851;43.434;28.338;2022-12-17T08:34:34;100064.59;;;14.02;100.00
26087;BME280;13851;43.434;28.338;2022-12-17T08:37:18;100025.41;;;13.79;100.00
26087;BME280;13851;43.434;28.338;2022-12-17T08:40:02;100031.41;;;13.89;100.00
26087;BME280;13851;43.434;28.338;2022-12-17T08:42:46;100048.41;;;13.93;100.00
26087;BME280;13851;43.434;28.338;2022-12-17T08:45:34;100088.91;;;14.27;100.00
26087;BME280;13851;43.434;28.338;2022-12-17T08:48:18;99993.31;;;13.93;100.00
26087;BME280;13851;43.434;28.338;2022-12-17T08:51:03;100026.13;;;14.50;100.00
26087;BME280;13851;43.434;28.338;2022-12-17T08:53:47;100027.72;;;14.38;100.00
26087;BME280;13851;43.434;28.338;2022-12-17T08:56:31;100008.09;;;14.48;100.00
26087;BME280;13851;43.434;28.338;2022-12-17T08:59:15;100033.38;;;14.58;100.00
26087;BME280;13851;43.434;28.338;2022-12-17T09:01:59;100040.31;;;14.47;100.00
26087;BME280;13851;43.434;28.338;2022-12-17T09:04:45;100022.59;;;14.28;100.00
26087;BME280;13851;43.434;28.338;2022-12-17T09:07:30;100033.13;;;14.18;100.00
26087;BME280;13851;43.434;28.338;2022-12-17T09:10:14;100014.25;;;14.22;100.00
26087;BME280;13851;43.434;28.338;2022-12-17T09:13:01;100002.69;;;14.33;100.00
26087;BME280;13851;43.434;28.338;2022-12-17T09:15:51;99967.75;;;14.05;100.00
26087;BME280;13851;43.434;28.338;2022-12-17T09:18:35;100025.59;;;14.34;100.00
26087;BME280;13851;43.434;28.338;2022-12-17T09:21:19;100031.53;;;14.37;100.00
26087;BME280;13851;43.434;28.338;2022-12-17T09:24:08;99988.72;;;14.41;100.00
26087;BME280;13851;43.434;28.338;2022-12-17T09:26:52;100025.41;;;14.42;100.00
26087;BME280;13851;43.434;28.338;2022-12-17T09:29:36;100008.66;;;14.43;100.00
26087;BME280;13851;43.434;28.338;2022-12-17T09:32:20;99990.19;;;14.37;100.00
26087;BME280;13851;43.434;28.338;2022-12-17T09:35:04;100014.31;;;14.28;100.00
26087;BME280;13851;43.434;28.338;2022-12-17T09:37:55;100008.38;;;14.25;100.00
26087;BME280;13851;43.434;28.338;2022-12-17T09:40:44;99983.47;;;14.46;100.00
26087;BME280;13851;43.434;28.338;2022-12-17T09:43:39;99971.97;;;14.43;100.00
26087;BME280;13851;43.434;28.338;2022-12-17T09:46:33;99925.19;;;14.08;100.00
26087;BME280;13851;43.434;28.338;2022-12-17T09:49:28;99980.47;;;14.41;100.00
26087;BME280;13851;43.434;28.338;2022-12-17T09:52:18;99964.50;;;14.30;100.00
26087;BME280;13851;43.434;28.338;2022-12-17T09:55:19;99755.50;;;12.96;100.00
26087;BME280;13851;43.434;28.338;2022-12-17T09:58:03;99974.16;;;14.47;100.00
26087;BME280;13851;43.434;28.338;2022-12-17T10:00:48;99983.47;;;14.46;100.00
26087;BME280;13851;43.434;28.338;2022-12-17T10:03:34;99952.03;;;14.34;100.00
26087;BME280;13851;43.434;28.338;2022-12-17T10:06:24;99957.69;;;14.61;100.00
26087;BME280;13851;43.434;28.338;2022-12-17T10:09:13;99980.34;;;14.56;100.00
26087;BME280;13851;43.434;28.338;2022-12-17T10:12:19;99933.66;;;14.48;100.00
26087;BME280;13851;43.434;28.338;2022-12-17T10:15:05;99978.22;;;14.58;100.00
26087;BME280;13851;43.434;28.338;2022-12-17T10:17:52;99676.38;;;12.98;100.00
26087;BME280;13851;43.434;28.338;2022-12-17T10:20:40;99913.03;;;14.37;100.00
26087;BME280;13851;43.434;28.338;2022-12-17T10:23:30;99959.00;;;14.65;100.00
26087;BME280;13851;43.434;28.338;2022-12-17T10:26:21;99947.28;;;14.56;100.00
26087;BME280;13851;43.434;28.338;2022-12-17T10:31:58;99669.28;;;12.76;100.00
26087;BME280;13851;43.434;28.338;2022-12-17T10:34:45;99963.47;;;14.38;100.00
26087;BME280;13851;43.434;28.338;2022-12-17T10:37:30;99864.44;;;13.82;100.00
26087;BME280;13851;43.434;28.338;2022-12-17T10:40:32;99922.38;;;14.01;100.00
26087;BME280;13851;43.434;28.338;2022-12-17T10:43:32;99936.09;;;14.23;100.00
26087;BME280;13851;43.434;28.338;2022-12-17T10:46:31;99971.63;;;14.52;100.00
26087;BME280;13851;43.434;28.338;2022-12-17T10:49:21;99881.78;;;14.17;100.00
26087;BME280;13851;43.434;28.338;2022-12-17T10:52:26;99955.25;;;14.86;100.00
26087;BME280;13851;43.434;28.338;2022-12-17T10:55:22;99995.69;;;15.46;100.00
26087;BME280;13851;43.434;28.338;2022-12-17T10:58:13;99962.78;;;15.65;100.00
26087;BME280;13851;43.434;28.338;2022-12-17T11:00:59;99942.59;;;15.51;100.00
26087;BME280;13851;43.434;28.338;2022-12-17T11:03:52;99957.06;;;15.73;100.00
26087;BME280;13851;43.434;28.338;2022-12-17T11:06:47;99967.25;;;15.85;100.00
26087;BME280;13851;43.434;28.338;2022-12-17T11:12:36;99958.97;;;15.92;100.00
26087;BME280;13851;43.434;28.338;2022-12-17T11:15:30;99965.94;;;16.01;100.00
26087;BME280;13851;43.434;28.338;2022-12-17T11:18:20;99943.75;;;16.34;100.00
26087;BME280;13851;43.434;28.338;2022-12-17T11:21:09;99977.34;;;16.45;100.00
26087;BME280;13851;43.434;28.338;2022-12-17T11:23:56;99795.19;;;15.45;100.00
26087;BME280;13851;43.434;28.338;2022-12-17T11:26:44;99968.97;;;16.58;100.00
26087;BME280;13851;43.434;28.338;2022-12-17T11:29:30;99978.75;;;16.74;100.00
26087;BME280;13851;43.434;28.338;2022-12-17T11:32:29;100010.38;;;16.91;100.00
26087;BME280;13851;43.434;28.338;2022-12-17T11:35:27;99980.22;;;17.14;100.00
26087;BME280;13851;43.434;28.338;2022-12-17T11:38:23;99959.72;;;17.54;100.00
26087;BME280;13851;43.434;28.338;2022-12-17T11:44:57;99972.13;;;18.01;100.00
26087;BME280;13851;43.434;28.338;2022-12-17T11:47:55;99899.91;;;18.14;100.00
26087;BME280;13851;43.434;28.338;2022-12-17T11:50:56;99741.28;;;17.39;100.00
26087;BME280;13851;43.434;28.338;2022-12-17T11:56:56;99905.25;;;19.66;100.00
26087;BME280;13851;43.434;28.338;2022-12-17T12:00:05;99946.25;;;20.18;100.00
26087;BME280;13851;43.434;28.338;2022-12-17T12:06:02;99896.34;;;20.40;100.00
26087;BME280;13851;43.434;28.338;2022-12-17T12:21:30;99915.22;;;20.90;100.00
26087;BME280;13851;43.434;28.338;2022-12-17T12:24:31;99940.69;;;21.10;100.00
26087;BME280;13851;43.434;28.338;2022-12-17T12:30:37;99928.63;;;21.84;100.00
26087;BME280;13851;43.434;28.338;2022-12-17T12:36:14;99871.19;;;21.32;100.00
26087;BME280;13851;43.434;28.338;2022-12-17T12:39:00;99689.97;;;19.86;100.00
26087;BME280;13851;43.434;28.338;2022-12-17T12:47:57;99916.13;;;19.68;100.00
26087;BME280;13851;43.434;28.338;2022-12-17T12:50:57;99960.59;;;19.68;100.00
26087;BME280;13851;43.434;28.338;2022-12-17T12:53:42;99923.97;;;19.59;100.00
26087;BME280;13851;43.434;28.338;2022-12-17T12:56:35;99739.38;;;18.66;100.00
26087;BME280;13851;43.434;28.338;2022-12-17T12:59:28;99980.34;;;20.13;100.00
26087;BME280;13851;43.434;28.338;2022-12-17T13:02:33;99976.22;;;20.51;100.00
26087;BME280;13851;43.434;28.338;2022-12-17T13:10:32;99951.19;;;21.65;100.00
26087;BME280;13851;43.434;28.338;2022-12-17T13:13:10;99949.81;;;21.85;100.00
26087;BME280;13851;43.434;28.338;2022-12-17T13:15:41;99970.88;;;21.59;100.00
26087;BME280;13851;43.434;28.338;2022-12-17T13:21:44;99710.34;;;19.51;100.00
26087;BME280;13851;43.434;28.338;2022-12-17T13:23:45;99980.38;;;20.89;100.00
26087;BME280;13851;43.434;28.338;2022-12-17T13:26:23;99779.19;;;19.49;100.00
26087;BME280;13851;43.434;28.338;2022-12-17T13:29:10;99972.94;;;20.54;100.00
26087;BME280;13851;43.434;28.338;2022-12-17T13:34:42;99977.19;;;20.21;100.00
26087;BME280;13851;43.434;28.338;2022-12-17T13:37:28;100004.53;;;20.24;100.00
26087;BME280;13851;43.434;28.338;2022-12-17T13:40:42;100017.59;;;20.24;100.00
26087;BME280;13851;43.434;28.338;2022-12-17T13:42:47;100037.41;;;20.04;100.00
26087;BME280;13851;43.434;28.338;2022-12-17T13:45:19;100026.22;;;19.81;100.00
26087;BME280;13851;43.434;28.338;2022-12-17T13:47:53;100042.28;;;19.37;100.00
26087;BME280;13851;43.434;28.338;2022-12-17T13:52:48;100042.25;;;18.27;100.00
26087;BME280;13851;43.434;28.338;2022-12-17T13:55:25;100050.53;;;18.08;100.00
26087;BME280;13851;43.434;28.338;2022-12-17T13:57:52;100084.44;;;18.10;100.00
26087;BME280;13851;43.434;28.338;2022-12-17T14:00:30;100098.84;;;17.94;100.00
26087;BME280;13851;43.434;28.338;2022-12-17T14:03:08;99471.78;;;13.94;100.00
26087;BME280;13851;43.434;28.338;2022-12-17T14:05:35;99874.88;;;16.33;100.00
26087;BME280;13851;43.434;28.338;2022-12-17T14:08:03;100125.19;;;17.72;100.00
26087;BME280;13851;43.434;28.338;2022-12-17T14:10:30;100123.81;;;17.49;100.00
26087;BME280;13851;43.434;28.338;2022-12-17T14:13:06;100111.69;;;17.44;100.00
26087;BME280;13851;43.434;28.338;2022-12-17T14:15:32;100137.47;;;17.51;100.00
26087;BME280;13851;43.434;28.338;2022-12-17T14:17:59;100140.25;;;17.44;100.00
26087;BME280;13851;43.434;28.338;2022-12-17T14:20:28;100149.84;;;17.41;100.00
26087;BME280;13851;43.434;28.338;2022-12-17T14:23:03;100145.84;;;17.31;100.00
26087;BME280;13851;43.434;28.338;2022-12-17T14:25:38;100067.47;;;16.79;100.00
26087;BME280;13851;43.434;28.338;2022-12-17T14:28:19;99958.91;;;16.12;100.00
26087;BME280;13851;43.434;28.338;2022-12-17T14:30:45;100121.50;;;16.95;100.00
26087;BME280;13851;43.434;28.338;2022-12-17T14:35:51;99873.78;;;15.09;100.00
26087;BME280;13851;43.434;28.338;2022-12-17T14:38:23;99928.56;;;15.26;100.00
26087;BME280;13851;43.434;28.338;2022-12-17T14:40:49;100167.06;;;16.26;100.00
26087;BME280;13851;43.434;28.338;2022-12-17T14:43:15;100149.19;;;16.42;100.00
26087;BME280;13851;43.434;28.338;2022-12-17T14:46:00;100144.31;;;16.44;100.00
26087;BME280;13851;43.434;28.338;2022-12-17T14:48:44;100116.44;;;16.05;100.00
26087;BME280;13851;43.434;28.338;2022-12-17T14:51:31;100142.41;;;16.18;100.00
26087;BME280;13851;43.434;28.338;2022-12-17T14:56:43;100125.38;;;16.27;100.00
26087;BME280;13851;43.434;28.338;2022-12-17T14:59:31;100140.91;;;16.35;100.00
26087;BME280;13851;43.434;28.338;2022-12-17T15:02:00;100098.59;;;16.15;100.00
26087;BME280;13851;43.434;28.338;2022-12-17T15:04:26;100153.44;;;16.31;100.00
26087;BME280;13851;43.434;28.338;2022-12-17T15:06:55;100080.31;;;16.14;100.00
26087;BME280;13851;43.434;28.338;2022-12-17T15:09:23;100147.50;;;16.54;100.00
26087;BME280;13851;43.434;28.338;2022-12-17T15:11:49;99922.63;;;15.36;100.00
26087;BME280;13851;43.434;28.338;2022-12-17T15:14:15;100113.22;;;16.61;100.00
26087;BME280;13851;43.434;28.338;2022-12-17T15:16:40;100076.44;;;16.54;100.00